Voyager I — CRA7580 — position and weather

sailwx.info

Track history (hours):
 
Tides and Currents Weather Stations Pressure Air Temp Water Temp Dewpoint Dewpoint Depression Visibility Wind Speed Wind Dir Waves Ship Positions

Voyager I

Last reported at 2017-Oct-14 17:51 UTC. Time now 2017-Oct-23 04:33 UTC.
Position N 38°42' W 009°11'.
Warning: this ship's position is 8 days out of date.

Length 12 m.

Type: Sailing vessel. MMSI: 263959222.

Date/timePositionNaut miles runAvg speedWind from/ knotsBaromVisibWave heightAir tempDewpointWater temp
2017-Oct-14 17:51N 38°42' W 009°11'1 3.0
2017-Oct-14 17:29N 38°42' W 009°12'2 3.5
2017-Oct-14 16:56N 38°42' W 009°14'2 3.7
2017-Oct-14 16:29N 38°42' W 009°12'3 4.9
2017-Oct-14 15:57N 38°42' W 009°09'0 0.2
2017-Oct-14 15:30N 38°42' W 009°09'  
2017-Oct-07 11:04N 38°42' W 009°11'0 1.5
2017-Oct-07 10:49N 38°42' W 009°11'0 0.2
2017-Oct-07 10:28N 38°42' W 009°11'1 1.1
2017-Oct-07 09:58N 38°42' W 009°10'0 0.0
2017-Oct-06 16:48N 38°42' W 009°11'0 0.8
2017-Oct-06 16:30N 38°42' W 009°11'1 2.7
2017-Oct-06 15:58N 38°41' W 009°13'1 3.0
2017-Oct-06 15:28N 38°42' W 009°11'1 1.3
2017-Oct-06 14:54N 38°42' W 009°10'1 1.7
2017-Oct-06 14:29N 38°42' W 009°09'1 2.5
2017-Oct-06 14:00N 38°41' W 009°08'1 1.7
2017-Oct-06 13:18N 38°42' W 009°07'0 0.6
2017-Oct-06 12:59N 38°42' W 009°07'2 3.4
2017-Oct-06 12:23N 38°42' W 009°09'1 3.1
2017-Oct-06 12:00N 38°42' W 009°11'  
Track history (hours):
 
Tides and Currents Weather Stations Pressure Air Temp Water Temp Dewpoint Dewpoint Depression Visibility Wind Speed Wind Dir Waves Ship Positions

Voyager I

Last reported at 2017-Oct-14 17:51 UTC. Time now 2017-Oct-23 04:33 UTC.
Position N 38°42' W 009°11'.
Warning: this ship's position is 8 days out of date.

Length 12 m.

Type: Sailing vessel. MMSI: 263959222.

Date/timePositionNaut miles runAvg speedWind from/ knotsBaromVisibWave heightAir tempDewpointWater temp
2017-Oct-14 17:51N 38°42' W 009°11'1 3.0
2017-Oct-14 17:29N 38°42' W 009°12'2 3.5
2017-Oct-14 16:56N 38°42' W 009°14'2 3.7
2017-Oct-14 16:29N 38°42' W 009°12'3 4.9
2017-Oct-14 15:57N 38°42' W 009°09'0 0.2
2017-Oct-14 15:30N 38°42' W 009°09'  
2017-Oct-07 11:04N 38°42' W 009°11'0 1.5
2017-Oct-07 10:49N 38°42' W 009°11'0 0.2
2017-Oct-07 10:28N 38°42' W 009°11'1 1.1
2017-Oct-07 09:58N 38°42' W 009°10'0 0.0
2017-Oct-06 16:48N 38°42' W 009°11'0 0.8
2017-Oct-06 16:30N 38°42' W 009°11'1 2.7
2017-Oct-06 15:58N 38°41' W 009°13'1 3.0
2017-Oct-06 15:28N 38°42' W 009°11'1 1.3
2017-Oct-06 14:54N 38°42' W 009°10'1 1.7
2017-Oct-06 14:29N 38°42' W 009°09'1 2.5
2017-Oct-06 14:00N 38°41' W 009°08'1 1.7
2017-Oct-06 13:18N 38°42' W 009°07'0 0.6
2017-Oct-06 12:59N 38°42' W 009°07'2 3.4
2017-Oct-06 12:23N 38°42' W 009°09'1 3.1
2017-Oct-06 12:00N 38°42' W 009°11'  

Dump ship's entire track history